sensor_id;sensor_type;location;lat;lon;timestamp;P1;durP1;ratioP1;P2;durP2;ratioP2
14078;SDS011;7115;50.150;8.568;2024-03-02T00:00:50;9.60;;;5.47;;
14078;SDS011;7115;50.150;8.568;2024-03-02T00:03:18;7.93;;;5.23;;
14078;SDS011;7115;50.150;8.568;2024-03-02T00:05:49;8.53;;;5.27;;
14078;SDS011;7115;50.150;8.568;2024-03-02T00:08:21;6.33;;;4.40;;
14078;SDS011;7115;50.150;8.568;2024-03-02T00:10:50;7.30;;;4.87;;
14078;SDS011;7115;50.150;8.568;2024-03-02T00:13:20;6.53;;;4.63;;
14078;SDS011;7115;50.150;8.568;2024-03-02T00:15:53;6.40;;;4.47;;
14078;SDS011;7115;50.150;8.568;2024-03-02T00:18:23;6.73;;;4.93;;
14078;SDS011;7115;50.150;8.568;2024-03-02T00:20:52;7.00;;;4.60;;
14078;SDS011;7115;50.150;8.568;2024-03-02T00:23:21;7.57;;;4.87;;
14078;SDS011;7115;50.150;8.568;2024-03-02T00:25:49;7.87;;;4.63;;
14078;SDS011;7115;50.150;8.568;2024-03-02T00:28:20;8.37;;;5.33;;
14078;SDS011;7115;50.150;8.568;2024-03-02T00:30:54;6.47;;;4.53;;
14078;SDS011;7115;50.150;8.568;2024-03-02T00:33:26;9.17;;;4.83;;
14078;SDS011;7115;50.150;8.568;2024-03-02T00:35:56;7.10;;;5.20;;
14078;SDS011;7115;50.150;8.568;2024-03-02T00:38:23;6.80;;;5.30;;
14078;SDS011;7115;50.150;8.568;2024-03-02T00:40:50;9.40;;;5.73;;
14078;SDS011;7115;50.150;8.568;2024-03-02T00:46:16;9.47;;;5.40;;
14078;SDS011;7115;50.150;8.568;2024-03-02T00:48:51;6.57;;;4.60;;
14078;SDS011;7115;50.150;8.568;2024-03-02T00:51:21;8.27;;;4.97;;
14078;SDS011;7115;50.150;8.568;2024-03-02T00:53:49;7.10;;;5.00;;
14078;SDS011;7115;50.150;8.568;2024-03-02T00:56:17;8.40;;;5.40;;
14078;SDS011;7115;50.150;8.568;2024-03-02T00:58:44;9.03;;;5.00;;
14078;SDS011;7115;50.150;8.568;2024-03-02T01:01:11;6.90;;;4.50;;
14078;SDS011;7115;50.150;8.568;2024-03-02T01:03:39;6.43;;;4.67;;
14078;SDS011;7115;50.150;8.568;2024-03-02T01:06:08;8.10;;;5.07;;
14078;SDS011;7115;50.150;8.568;2024-03-02T01:08:35;6.13;;;4.87;;
14078;SDS011;7115;50.150;8.568;2024-03-02T01:11:03;6.47;;;4.30;;
14078;SDS011;7115;50.150;8.568;2024-03-02T01:13:30;6.03;;;4.50;;
14078;SDS011;7115;50.150;8.568;2024-03-02T01:15:58;7.57;;;4.53;;
14078;SDS011;7115;50.150;8.568;2024-03-02T01:18:25;7.73;;;4.37;;
14078;SDS011;7115;50.150;8.568;2024-03-02T01:20:54;5.30;;;4.17;;
14078;SDS011;7115;50.150;8.568;2024-03-02T01:23:23;9.33;;;3.67;;
14078;SDS011;7115;50.150;8.568;2024-03-02T01:25:51;6.30;;;4.10;;
14078;SDS011;7115;50.150;8.568;2024-03-02T01:28:18;5.50;;;3.97;;
14078;SDS011;7115;50.150;8.568;2024-03-02T01:30:47;6.60;;;4.20;;
14078;SDS011;7115;50.150;8.568;2024-03-02T01:33:14;5.93;;;4.10;;
14078;SDS011;7115;50.150;8.568;2024-03-02T01:35:42;5.47;;;4.30;;
14078;SDS011;7115;50.150;8.568;2024-03-02T01:38:10;7.87;;;5.57;;
14078;SDS011;7115;50.150;8.568;2024-03-02T01:40:37;7.97;;;5.50;;
14078;SDS011;7115;50.150;8.568;2024-03-02T01:43:04;7.80;;;5.53;;
14078;SDS011;7115;50.150;8.568;2024-03-02T01:45:32;10.67;;;6.13;;
14078;SDS011;7115;50.150;8.568;2024-03-02T01:47:59;10.77;;;5.77;;
14078;SDS011;7115;50.150;8.568;2024-03-02T01:50:26;9.87;;;5.57;;
14078;SDS011;7115;50.150;8.568;2024-03-02T01:52:55;7.80;;;5.60;;
14078;SDS011;7115;50.150;8.568;2024-03-02T01:55:24;9.00;;;5.50;;
14078;SDS011;7115;50.150;8.568;2024-03-02T01:57:51;7.90;;;4.80;;
14078;SDS011;7115;50.150;8.568;2024-03-02T02:00:19;8.10;;;4.73;;
14078;SDS011;7115;50.150;8.568;2024-03-02T02:02:46;9.93;;;6.03;;
14078;SDS011;7115;50.150;8.568;2024-03-02T02:05:14;7.80;;;5.27;;
14078;SDS011;7115;50.150;8.568;2024-03-02T02:07:41;8.17;;;5.60;;
14078;SDS011;7115;50.150;8.568;2024-03-02T02:10:09;10.63;;;5.90;;
14078;SDS011;7115;50.150;8.568;2024-03-02T02:12:38;6.63;;;5.10;;
14078;SDS011;7115;50.150;8.568;2024-03-02T02:17:48;7.47;;;5.67;;
14078;SDS011;7115;50.150;8.568;2024-03-02T02:20:15;9.27;;;6.23;;
14078;SDS011;7115;50.150;8.568;2024-03-02T02:22:53;9.07;;;5.97;;
14078;SDS011;7115;50.150;8.568;2024-03-02T02:25:24;6.77;;;5.47;;
14078;SDS011;7115;50.150;8.568;2024-03-02T02:27:51;7.67;;;5.20;;
14078;SDS011;7115;50.150;8.568;2024-03-02T02:30:19;8.03;;;5.33;;
14078;SDS011;7115;50.150;8.568;2024-03-02T02:32:47;8.43;;;5.50;;
14078;SDS011;7115;50.150;8.568;2024-03-02T02:35:14;7.20;;;5.10;;
14078;SDS011;7115;50.150;8.568;2024-03-02T02:37:41;8.67;;;5.30;;
14078;SDS011;7115;50.150;8.568;2024-03-02T02:40:11;7.53;;;5.53;;
14078;SDS011;7115;50.150;8.568;2024-03-02T02:42:38;12.00;;;6.20;;
14078;SDS011;7115;50.150;8.568;2024-03-02T02:45:06;8.50;;;6.63;;
14078;SDS011;7115;50.150;8.568;2024-03-02T02:47:33;10.83;;;6.77;;
14078;SDS011;7115;50.150;8.568;2024-03-02T02:50:02;10.73;;;6.67;;
14078;SDS011;7115;50.150;8.568;2024-03-02T02:52:32;9.20;;;6.37;;
14078;SDS011;7115;50.150;8.568;2024-03-02T02:55:00;11.13;;;6.60;;
14078;SDS011;7115;50.150;8.568;2024-03-02T02:57:28;9.67;;;6.63;;
14078;SDS011;7115;50.150;8.568;2024-03-02T02:59:57;10.93;;;6.70;;
14078;SDS011;7115;50.150;8.568;2024-03-02T03:02:24;9.50;;;6.87;;
14078;SDS011;7115;50.150;8.568;2024-03-02T03:04:53;12.20;;;7.23;;
14078;SDS011;7115;50.150;8.568;2024-03-02T03:07:23;10.50;;;7.67;;
14078;SDS011;7115;50.150;8.568;2024-03-02T03:09:50;12.37;;;8.47;;
14078;SDS011;7115;50.150;8.568;2024-03-02T03:12:17;12.70;;;8.07;;
14078;SDS011;7115;50.150;8.568;2024-03-02T03:14:46;13.47;;;8.63;;
14078;SDS011;7115;50.150;8.568;2024-03-02T03:17:13;13.43;;;9.27;;
14078;SDS011;7115;50.150;8.568;2024-03-02T03:19:40;15.30;;;8.70;;
14078;SDS011;7115;50.150;8.568;2024-03-02T03:22:06;12.50;;;7.80;;
14078;SDS011;7115;50.150;8.568;2024-03-02T03:24:33;11.93;;;7.50;;
14078;SDS011;7115;50.150;8.568;2024-03-02T03:27:00;10.23;;;7.57;;
14078;SDS011;7115;50.150;8.568;2024-03-02T03:29:27;14.97;;;8.10;;
14078;SDS011;7115;50.150;8.568;2024-03-02T03:31:55;11.73;;;7.57;;
14078;SDS011;7115;50.150;8.568;2024-03-02T03:34:22;14.27;;;7.93;;
14078;SDS011;7115;50.150;8.568;2024-03-02T03:36:49;12.70;;;8.00;;
14078;SDS011;7115;50.150;8.568;2024-03-02T03:39:16;10.87;;;7.70;;
14078;SDS011;7115;50.150;8.568;2024-03-02T03:41:44;12.23;;;7.83;;
14078;SDS011;7115;50.150;8.568;2024-03-02T03:44:11;12.70;;;8.87;;
14078;SDS011;7115;50.150;8.568;2024-03-02T03:46:38;11.67;;;7.87;;
14078;SDS011;7115;50.150;8.568;2024-03-02T03:49:06;14.47;;;8.33;;
14078;SDS011;7115;50.150;8.568;2024-03-02T03:51:34;11.93;;;7.50;;
14078;SDS011;7115;50.150;8.568;2024-03-02T03:54:01;11.87;;;7.13;;
14078;SDS011;7115;50.150;8.568;2024-03-02T03:56:28;13.60;;;7.67;;
14078;SDS011;7115;50.150;8.568;2024-03-02T03:58:55;14.50;;;9.27;;
14078;SDS011;7115;50.150;8.568;2024-03-02T04:01:22;11.90;;;8.00;;
14078;SDS011;7115;50.150;8.568;2024-03-02T04:03:49;14.50;;;9.10;;
14078;SDS011;7115;50.150;8.568;2024-03-02T04:06:17;12.43;;;8.53;;
14078;SDS011;7115;50.150;8.568;2024-03-02T04:08:44;13.33;;;8.33;;
14078;SDS011;7115;50.150;8.568;2024-03-02T04:11:11;12.90;;;8.20;;
14078;SDS011;7115;50.150;8.568;2024-03-02T04:13:38;14.30;;;9.17;;
14078;SDS011;7115;50.150;8.568;2024-03-02T04:16:05;13.37;;;8.43;;
14078;SDS011;7115;50.150;8.568;2024-03-02T04:18:32;15.90;;;9.93;;
14078;SDS011;7115;50.150;8.568;2024-03-02T04:20:59;14.03;;;8.70;;
14078;SDS011;7115;50.150;8.568;2024-03-02T04:23:28;16.10;;;9.83;;
14078;SDS011;7115;50.150;8.568;2024-03-02T04:25:55;14.97;;;9.80;;
14078;SDS011;7115;50.150;8.568;2024-03-02T04:28:22;16.67;;;9.87;;
14078;SDS011;7115;50.150;8.568;2024-03-02T04:30:49;16.07;;;9.37;;
14078;SDS011;7115;50.150;8.568;2024-03-02T04:33:16;14.63;;;9.60;;
14078;SDS011;7115;50.150;8.568;2024-03-02T04:35:43;15.50;;;9.80;;
14078;SDS011;7115;50.150;8.568;2024-03-02T04:38:10;15.00;;;8.43;;
14078;SDS011;7115;50.150;8.568;2024-03-02T04:40:38;14.70;;;9.53;;
14078;SDS011;7115;50.150;8.568;2024-03-02T04:43:05;15.30;;;9.23;;
14078;SDS011;7115;50.150;8.568;2024-03-02T04:45:32;16.53;;;11.20;;
14078;SDS011;7115;50.150;8.568;2024-03-02T04:47:59;19.10;;;12.03;;
14078;SDS011;7115;50.150;8.568;2024-03-02T04:50:26;17.63;;;10.97;;
14078;SDS011;7115;50.150;8.568;2024-03-02T04:52:53;19.23;;;12.37;;
14078;SDS011;7115;50.150;8.568;2024-03-02T04:55:20;21.67;;;12.37;;
14078;SDS011;7115;50.150;8.568;2024-03-02T04:57:51;17.27;;;11.03;;
14078;SDS011;7115;50.150;8.568;2024-03-02T05:00:21;20.17;;;12.67;;
14078;SDS011;7115;50.150;8.568;2024-03-02T05:02:48;17.57;;;11.80;;
14078;SDS011;7115;50.150;8.568;2024-03-02T05:05:15;17.93;;;11.37;;
14078;SDS011;7115;50.150;8.568;2024-03-02T05:07:42;18.63;;;11.70;;
14078;SDS011;7115;50.150;8.568;2024-03-02T05:10:10;21.27;;;12.17;;
14078;SDS011;7115;50.150;8.568;2024-03-02T05:12:40;16.87;;;11.70;;
14078;SDS011;7115;50.150;8.568;2024-03-02T05:15:13;20.80;;;12.73;;
14078;SDS011;7115;50.150;8.568;2024-03-02T05:17:41;23.47;;;13.03;;
14078;SDS011;7115;50.150;8.568;2024-03-02T05:20:11;17.97;;;11.37;;
14078;SDS011;7115;50.150;8.568;2024-03-02T05:22:38;18.13;;;10.83;;
14078;SDS011;7115;50.150;8.568;2024-03-02T05:25:06;18.90;;;11.57;;
14078;SDS011;7115;50.150;8.568;2024-03-02T05:27:33;16.83;;;12.13;;
14078;SDS011;7115;50.150;8.568;2024-03-02T05:30:01;19.83;;;12.93;;
14078;SDS011;7115;50.150;8.568;2024-03-02T05:32:29;19.73;;;11.60;;
14078;SDS011;7115;50.150;8.568;2024-03-02T05:34:56;23.00;;;13.17;;
14078;SDS011;7115;50.150;8.568;2024-03-02T05:37:23;21.27;;;12.37;;
14078;SDS011;7115;50.150;8.568;2024-03-02T05:39:50;20.90;;;12.37;;
14078;SDS011;7115;50.150;8.568;2024-03-02T05:42:17;18.27;;;11.53;;
14078;SDS011;7115;50.150;8.568;2024-03-02T05:44:45;19.23;;;11.63;;
14078;SDS011;7115;50.150;8.568;2024-03-02T05:47:12;18.03;;;12.10;;
14078;SDS011;7115;50.150;8.568;2024-03-02T05:49:40;19.20;;;11.87;;
14078;SDS011;7115;50.150;8.568;2024-03-02T05:52:07;19.47;;;12.37;;
14078;SDS011;7115;50.150;8.568;2024-03-02T05:54:34;19.10;;;11.93;;
14078;SDS011;7115;50.150;8.568;2024-03-02T05:57:01;19.73;;;11.83;;
14078;SDS011;7115;50.150;8.568;2024-03-02T05:59:43;22.63;;;11.53;;
14078;SDS011;7115;50.150;8.568;2024-03-02T06:02:10;18.63;;;11.60;;
14078;SDS011;7115;50.150;8.568;2024-03-02T06:04:37;20.00;;;12.13;;
14078;SDS011;7115;50.150;8.568;2024-03-02T06:07:06;20.50;;;12.27;;
14078;SDS011;7115;50.150;8.568;2024-03-02T06:09:33;20.07;;;12.23;;
14078;SDS011;7115;50.150;8.568;2024-03-02T06:12:00;21.20;;;11.50;;
14078;SDS011;7115;50.150;8.568;2024-03-02T06:14:27;20.83;;;13.40;;
14078;SDS011;7115;50.150;8.568;2024-03-02T06:16:54;21.10;;;12.63;;
14078;SDS011;7115;50.150;8.568;2024-03-02T06:19:21;21.00;;;12.13;;
14078;SDS011;7115;50.150;8.568;2024-03-02T06:21:48;20.20;;;12.20;;
14078;SDS011;7115;50.150;8.568;2024-03-02T06:24:16;17.47;;;10.73;;
14078;SDS011;7115;50.150;8.568;2024-03-02T06:26:43;18.93;;;9.77;;
14078;SDS011;7115;50.150;8.568;2024-03-02T06:29:10;17.07;;;10.77;;
14078;SDS011;7115;50.150;8.568;2024-03-02T06:31:37;16.87;;;11.37;;
14078;SDS011;7115;50.150;8.568;2024-03-02T06:34:04;16.57;;;10.00;;
14078;SDS011;7115;50.150;8.568;2024-03-02T06:36:31;19.20;;;10.43;;
14078;SDS011;7115;50.150;8.568;2024-03-02T06:38:58;19.40;;;10.80;;
14078;SDS011;7115;50.150;8.568;2024-03-02T06:41:26;25.23;;;13.27;;
14078;SDS011;7115;50.150;8.568;2024-03-02T06:43:53;19.13;;;12.03;;
14078;SDS011;7115;50.150;8.568;2024-03-02T06:46:26;21.23;;;12.30;;
14078;SDS011;7115;50.150;8.568;2024-03-02T06:48:53;21.20;;;11.13;;
14078;SDS011;7115;50.150;8.568;2024-03-02T06:51:20;22.43;;;13.43;;
14078;SDS011;7115;50.150;8.568;2024-03-02T06:53:48;23.97;;;13.67;;
14078;SDS011;7115;50.150;8.568;2024-03-02T06:56:15;22.33;;;12.93;;
14078;SDS011;7115;50.150;8.568;2024-03-02T06:58:43;24.80;;;13.50;;
14078;SDS011;7115;50.150;8.568;2024-03-02T07:01:10;21.43;;;13.50;;
14078;SDS011;7115;50.150;8.568;2024-03-02T07:03:37;20.53;;;12.77;;
14078;SDS011;7115;50.150;8.568;2024-03-02T07:06:05;23.83;;;13.70;;
14078;SDS011;7115;50.150;8.568;2024-03-02T07:08:33;22.80;;;13.03;;
14078;SDS011;7115;50.150;8.568;2024-03-02T07:11:00;21.60;;;13.30;;
14078;SDS011;7115;50.150;8.568;2024-03-02T07:13:27;26.03;;;16.43;;
14078;SDS011;7115;50.150;8.568;2024-03-02T07:15:55;23.53;;;13.07;;
14078;SDS011;7115;50.150;8.568;2024-03-02T07:18:28;21.50;;;13.50;;
14078;SDS011;7115;50.150;8.568;2024-03-02T07:20:56;22.63;;;14.27;;
14078;SDS011;7115;50.150;8.568;2024-03-02T07:23:27;22.73;;;13.73;;
14078;SDS011;7115;50.150;8.568;2024-03-02T07:25:54;23.60;;;14.37;;
14078;SDS011;7115;50.150;8.568;2024-03-02T07:28:25;20.30;;;13.10;;
14078;SDS011;7115;50.150;8.568;2024-03-02T07:30:58;20.63;;;13.53;;
14078;SDS011;7115;50.150;8.568;2024-03-02T07:33:26;23.10;;;13.10;;
14078;SDS011;7115;50.150;8.568;2024-03-02T07:35:53;24.97;;;14.50;;
14078;SDS011;7115;50.150;8.568;2024-03-02T07:38:21;23.00;;;13.80;;
14078;SDS011;7115;50.150;8.568;2024-03-02T07:40:48;21.23;;;13.63;;
14078;SDS011;7115;50.150;8.568;2024-03-02T07:43:18;20.67;;;12.90;;
14078;SDS011;7115;50.150;8.568;2024-03-02T07:45:46;18.80;;;12.43;;
14078;SDS011;7115;50.150;8.568;2024-03-02T07:48:14;20.13;;;13.10;;
14078;SDS011;7115;50.150;8.568;2024-03-02T07:50:42;19.23;;;12.07;;
14078;SDS011;7115;50.150;8.568;2024-03-02T07:53:09;20.33;;;12.23;;
14078;SDS011;7115;50.150;8.568;2024-03-02T07:55:36;19.60;;;12.30;;
14078;SDS011;7115;50.150;8.568;2024-03-02T07:58:03;19.03;;;11.70;;
14078;SDS011;7115;50.150;8.568;2024-03-02T08:00:30;17.23;;;10.40;;
14078;SDS011;7115;50.150;8.568;2024-03-02T08:02:57;14.57;;;10.33;;
14078;SDS011;7115;50.150;8.568;2024-03-02T08:05:26;15.40;;;10.33;;
14078;SDS011;7115;50.150;8.568;2024-03-02T08:07:53;14.23;;;9.83;;
14078;SDS011;7115;50.150;8.568;2024-03-02T08:10:20;14.03;;;9.67;;
14078;SDS011;7115;50.150;8.568;2024-03-02T08:12:47;28.13;;;20.43;;
14078;SDS011;7115;50.150;8.568;2024-03-02T08:15:14;13.27;;;9.20;;
14078;SDS011;7115;50.150;8.568;2024-03-02T08:17:41;25.73;;;16.80;;
14078;SDS011;7115;50.150;8.568;2024-03-02T08:20:15;13.50;;;9.43;;
14078;SDS011;7115;50.150;8.568;2024-03-02T08:22:44;15.67;;;10.33;;
14078;SDS011;7115;50.150;8.568;2024-03-02T08:25:11;14.70;;;9.70;;
14078;SDS011;7115;50.150;8.568;2024-03-02T08:27:39;15.70;;;9.93;;
14078;SDS011;7115;50.150;8.568;2024-03-02T08:30:07;12.60;;;9.27;;
14078;SDS011;7115;50.150;8.568;2024-03-02T08:32:36;15.17;;;9.60;;
14078;SDS011;7115;50.150;8.568;2024-03-02T08:35:04;15.03;;;10.37;;
14078;SDS011;7115;50.150;8.568;2024-03-02T08:37:31;14.20;;;9.63;;
14078;SDS011;7115;50.150;8.568;2024-03-02T08:40:00;13.13;;;9.33;;
14078;SDS011;7115;50.150;8.568;2024-03-02T08:42:27;12.57;;;8.93;;
14078;SDS011;7115;50.150;8.568;2024-03-02T08:44:55;13.20;;;9.03;;
14078;SDS011;7115;50.150;8.568;2024-03-02T08:47:22;15.77;;;10.57;;
14078;SDS011;7115;50.150;8.568;2024-03-02T08:49:49;15.63;;;9.47;;
14078;SDS011;7115;50.150;8.568;2024-03-02T08:52:16;16.23;;;10.60;;
14078;SDS011;7115;50.150;8.568;2024-03-02T08:54:43;16.13;;;10.50;;
14078;SDS011;7115;50.150;8.568;2024-03-02T08:57:11;15.20;;;10.30;;
14078;SDS011;7115;50.150;8.568;2024-03-02T08:59:38;17.47;;;10.03;;
14078;SDS011;7115;50.150;8.568;2024-03-02T09:02:06;24.57;;;12.13;;
14078;SDS011;7115;50.150;8.568;2024-03-02T09:04:33;17.63;;;11.30;;
14078;SDS011;7115;50.150;8.568;2024-03-02T09:07:00;17.23;;;10.07;;
14078;SDS011;7115;50.150;8.568;2024-03-02T09:09:27;16.57;;;10.83;;
14078;SDS011;7115;50.150;8.568;2024-03-02T09:11:54;16.93;;;11.07;;
14078;SDS011;7115;50.150;8.568;2024-03-02T09:14:25;17.50;;;11.23;;
14078;SDS011;7115;50.150;8.568;2024-03-02T09:16:52;16.33;;;11.13;;
14078;SDS011;7115;50.150;8.568;2024-03-02T09:19:19;18.37;;;11.83;;
14078;SDS011;7115;50.150;8.568;2024-03-02T09:21:46;16.60;;;10.90;;
14078;SDS011;7115;50.150;8.568;2024-03-02T09:24:13;23.20;;;11.47;;
14078;SDS011;7115;50.150;8.568;2024-03-02T09:26:43;15.20;;;9.97;;
14078;SDS011;7115;50.150;8.568;2024-03-02T09:29:10;20.80;;;11.43;;
14078;SDS011;7115;50.150;8.568;2024-03-02T09:31:40;15.63;;;10.57;;
14078;SDS011;7115;50.150;8.568;2024-03-02T09:34:07;16.07;;;10.47;;
14078;SDS011;7115;50.150;8.568;2024-03-02T09:36:35;18.40;;;12.33;;
14078;SDS011;7115;50.150;8.568;2024-03-02T09:39:02;16.87;;;10.83;;
14078;SDS011;7115;50.150;8.568;2024-03-02T09:41:30;15.63;;;10.40;;
14078;SDS011;7115;50.150;8.568;2024-03-02T09:43:59;16.30;;;10.53;;
14078;SDS011;7115;50.150;8.568;2024-03-02T09:46:26;17.00;;;11.13;;
14078;SDS011;7115;50.150;8.568;2024-03-02T09:48:55;16.73;;;11.30;;
14078;SDS011;7115;50.150;8.568;2024-03-02T09:51:22;14.93;;;9.77;;
14078;SDS011;7115;50.150;8.568;2024-03-02T09:53:49;13.67;;;9.90;;
14078;SDS011;7115;50.150;8.568;2024-03-02T09:56:16;15.40;;;10.20;;
14078;SDS011;7115;50.150;8.568;2024-03-02T09:58:44;19.23;;;10.73;;
14078;SDS011;7115;50.150;8.568;2024-03-02T10:01:11;13.83;;;9.97;;
14078;SDS011;7115;50.150;8.568;2024-03-02T10:03:39;14.23;;;9.97;;
14078;SDS011;7115;50.150;8.568;2024-03-02T10:06:19;13.77;;;8.93;;
14078;SDS011;7115;50.150;8.568;2024-03-02T10:08:47;15.50;;;9.60;;
14078;SDS011;7115;50.150;8.568;2024-03-02T10:11:27;15.73;;;9.17;;
14078;SDS011;7115;50.150;8.568;2024-03-02T10:14:05;13.87;;;9.50;;
14078;SDS011;7115;50.150;8.568;2024-03-02T10:16:36;12.33;;;8.70;;
14078;SDS011;7115;50.150;8.568;2024-03-02T10:19:16;18.30;;;9.97;;
14078;SDS011;7115;50.150;8.568;2024-03-02T10:21:46;13.40;;;8.73;;
14078;SDS011;7115;50.150;8.568;2024-03-02T10:24:13;14.43;;;8.83;;
14078;SDS011;7115;50.150;8.568;2024-03-02T10:26:40;14.97;;;8.43;;
14078;SDS011;7115;50.150;8.568;2024-03-02T10:29:08;12.50;;;8.53;;
14078;SDS011;7115;50.150;8.568;2024-03-02T10:31:36;14.30;;;8.90;;
14078;SDS011;7115;50.150;8.568;2024-03-02T10:34:04;14.10;;;9.53;;
14078;SDS011;7115;50.150;8.568;2024-03-02T10:36:32;12.97;;;8.53;;
14078;SDS011;7115;50.150;8.568;2024-03-02T10:39:01;12.97;;;7.80;;
14078;SDS011;7115;50.150;8.568;2024-03-02T10:41:31;9.47;;;7.17;;
14078;SDS011;7115;50.150;8.568;2024-03-02T10:44:01;13.13;;;8.50;;
14078;SDS011;7115;50.150;8.568;2024-03-02T10:46:29;9.23;;;7.70;;
14078;SDS011;7115;50.150;8.568;2024-03-02T10:48:57;11.20;;;7.47;;
14078;SDS011;7115;50.150;8.568;2024-03-02T10:51:31;10.00;;;7.23;;
14078;SDS011;7115;50.150;8.568;2024-03-02T10:54:04;9.80;;;6.97;;
14078;SDS011;7115;50.150;8.568;2024-03-02T10:56:32;11.20;;;7.23;;
14078;SDS011;7115;50.150;8.568;2024-03-02T10:59:06;9.20;;;7.23;;
14078;SDS011;7115;50.150;8.568;2024-03-02T11:01:38;9.93;;;7.33;;
14078;SDS011;7115;50.150;8.568;2024-03-02T11:04:06;9.10;;;6.53;;
14078;SDS011;7115;50.150;8.568;2024-03-02T11:06:36;9.87;;;6.83;;
14078;SDS011;7115;50.150;8.568;2024-03-02T11:09:07;9.97;;;7.57;;
14078;SDS011;7115;50.150;8.568;2024-03-02T11:11:36;11.83;;;7.43;;
14078;SDS011;7115;50.150;8.568;2024-03-02T11:14:08;10.40;;;6.87;;
14078;SDS011;7115;50.150;8.568;2024-03-02T11:16:40;9.50;;;7.80;;
14078;SDS011;7115;50.150;8.568;2024-03-02T11:19:08;9.60;;;6.70;;
14078;SDS011;7115;50.150;8.568;2024-03-02T11:21:39;9.27;;;6.63;;
14078;SDS011;7115;50.150;8.568;2024-03-02T11:27:04;8.13;;;6.40;;
14078;SDS011;7115;50.150;8.568;2024-03-02T11:29:45;10.63;;;6.90;;
14078;SDS011;7115;50.150;8.568;2024-03-02T11:32:20;10.33;;;6.97;;
14078;SDS011;7115;50.150;8.568;2024-03-02T11:34:49;10.10;;;7.30;;
14078;SDS011;7115;50.150;8.568;2024-03-02T11:37:17;8.83;;;6.33;;
14078;SDS011;7115;50.150;8.568;2024-03-02T11:39:46;9.93;;;7.17;;
14078;SDS011;7115;50.150;8.568;2024-03-02T11:42:15;10.57;;;7.13;;
14078;SDS011;7115;50.150;8.568;2024-03-02T11:44:43;8.57;;;7.03;;
14078;SDS011;7115;50.150;8.568;2024-03-02T11:47:13;13.03;;;7.57;;
14078;SDS011;7115;50.150;8.568;2024-03-02T11:49:41;10.50;;;7.13;;
14078;SDS011;7115;50.150;8.568;2024-03-02T11:52:10;9.13;;;6.77;;
14078;SDS011;7115;50.150;8.568;2024-03-02T11:54:38;12.00;;;7.00;;
14078;SDS011;7115;50.150;8.568;2024-03-02T11:57:07;8.53;;;7.00;;
14078;SDS011;7115;50.150;8.568;2024-03-02T11:59:34;9.33;;;6.90;;
14078;SDS011;7115;50.150;8.568;2024-03-02T12:02:02;9.60;;;7.03;;
14078;SDS011;7115;50.150;8.568;2024-03-02T12:04:29;10.63;;;6.30;;
14078;SDS011;7115;50.150;8.568;2024-03-02T12:06:58;10.33;;;7.07;;
14078;SDS011;7115;50.150;8.568;2024-03-02T12:09:26;8.20;;;5.97;;
14078;SDS011;7115;50.150;8.568;2024-03-02T12:12:03;10.23;;;6.63;;
14078;SDS011;7115;50.150;8.568;2024-03-02T12:14:33;8.80;;;5.60;;
14078;SDS011;7115;50.150;8.568;2024-03-02T12:17:00;9.00;;;5.93;;
14078;SDS011;7115;50.150;8.568;2024-03-02T12:19:28;10.63;;;7.60;;
14078;SDS011;7115;50.150;8.568;2024-03-02T12:21:56;10.30;;;6.43;;
14078;SDS011;7115;50.150;8.568;2024-03-02T12:24:24;10.33;;;5.80;;
14078;SDS011;7115;50.150;8.568;2024-03-02T12:26:53;8.60;;;6.07;;
14078;SDS011;7115;50.150;8.568;2024-03-02T12:29:21;10.30;;;6.20;;
14078;SDS011;7115;50.150;8.568;2024-03-02T12:31:50;8.57;;;6.63;;
14078;SDS011;7115;50.150;8.568;2024-03-02T12:34:18;8.17;;;6.30;;
14078;SDS011;7115;50.150;8.568;2024-03-02T12:36:46;10.97;;;6.17;;
14078;SDS011;7115;50.150;8.568;2024-03-02T12:39:16;9.50;;;6.60;;
14078;SDS011;7115;50.150;8.568;2024-03-02T12:41:43;9.40;;;6.50;;
14078;SDS011;7115;50.150;8.568;2024-03-02T12:44:10;8.73;;;6.17;;
14078;SDS011;7115;50.150;8.568;2024-03-02T12:46:37;8.73;;;5.97;;
14078;SDS011;7115;50.150;8.568;2024-03-02T12:49:09;10.40;;;6.47;;
14078;SDS011;7115;50.150;8.568;2024-03-02T12:51:38;8.47;;;6.53;;
14078;SDS011;7115;50.150;8.568;2024-03-02T12:54:09;7.60;;;5.67;;
14078;SDS011;7115;50.150;8.568;2024-03-02T12:56:37;11.73;;;6.60;;
14078;SDS011;7115;50.150;8.568;2024-03-02T12:59:04;8.77;;;6.60;;
14078;SDS011;7115;50.150;8.568;2024-03-02T13:01:31;10.07;;;6.53;;
14078;SDS011;7115;50.150;8.568;2024-03-02T13:03:58;7.20;;;5.77;;
14078;SDS011;7115;50.150;8.568;2024-03-02T13:06:27;10.80;;;6.43;;
14078;SDS011;7115;50.150;8.568;2024-03-02T13:08:54;7.33;;;5.00;;
14078;SDS011;7115;50.150;8.568;2024-03-02T13:11:22;12.83;;;9.23;;
14078;SDS011;7115;50.150;8.568;2024-03-02T13:13:52;9.13;;;6.00;;
14078;SDS011;7115;50.150;8.568;2024-03-02T13:16:19;8.50;;;5.87;;
14078;SDS011;7115;50.150;8.568;2024-03-02T13:18:55;8.73;;;5.10;;
14078;SDS011;7115;50.150;8.568;2024-03-02T13:21:22;9.90;;;5.10;;
14078;SDS011;7115;50.150;8.568;2024-03-02T13:23:50;7.90;;;5.10;;
14078;SDS011;7115;50.150;8.568;2024-03-02T13:26:17;7.43;;;5.70;;
14078;SDS011;7115;50.150;8.568;2024-03-02T13:28:45;7.80;;;5.27;;
14078;SDS011;7115;50.150;8.568;2024-03-02T13:31:12;7.00;;;5.23;;
14078;SDS011;7115;50.150;8.568;2024-03-02T13:33:39;7.67;;;5.40;;
14078;SDS011;7115;50.150;8.568;2024-03-02T13:36:06;6.63;;;4.23;;
14078;SDS011;7115;50.150;8.568;2024-03-02T13:38:34;6.60;;;4.60;;
14078;SDS011;7115;50.150;8.568;2024-03-02T13:41:02;10.97;;;5.90;;
14078;SDS011;7115;50.150;8.568;2024-03-02T13:43:29;6.27;;;4.53;;
14078;SDS011;7115;50.150;8.568;2024-03-02T13:45:59;7.03;;;5.13;;
14078;SDS011;7115;50.150;8.568;2024-03-02T13:48:26;6.50;;;4.23;;
14078;SDS011;7115;50.150;8.568;2024-03-02T13:50:53;6.90;;;4.17;;
14078;SDS011;7115;50.150;8.568;2024-03-02T13:53:20;6.93;;;4.23;;
14078;SDS011;7115;50.150;8.568;2024-03-02T13:55:47;9.13;;;4.97;;
14078;SDS011;7115;50.150;8.568;2024-03-02T13:58:15;5.67;;;4.30;;
14078;SDS011;7115;50.150;8.568;2024-03-02T14:00:43;7.57;;;4.30;;
14078;SDS011;7115;50.150;8.568;2024-03-02T14:03:11;5.27;;;3.70;;
14078;SDS011;7115;50.150;8.568;2024-03-02T14:05:38;9.80;;;4.03;;
14078;SDS011;7115;50.150;8.568;2024-03-02T14:08:05;6.17;;;4.93;;
14078;SDS011;7115;50.150;8.568;2024-03-02T14:10:32;5.33;;;4.17;;
14078;SDS011;7115;50.150;8.568;2024-03-02T14:12:59;4.73;;;4.07;;
14078;SDS011;7115;50.150;8.568;2024-03-02T14:15:28;8.10;;;4.50;;
14078;SDS011;7115;50.150;8.568;2024-03-02T14:17:56;7.60;;;4.37;;
14078;SDS011;7115;50.150;8.568;2024-03-02T14:20:23;4.83;;;3.87;;
14078;SDS011;7115;50.150;8.568;2024-03-02T14:22:50;5.40;;;3.63;;
14078;SDS011;7115;50.150;8.568;2024-03-02T14:25:17;4.67;;;3.60;;
14078;SDS011;7115;50.150;8.568;2024-03-02T14:27:45;4.80;;;3.40;;
14078;SDS011;7115;50.150;8.568;2024-03-02T14:30:34;5.53;;;3.30;;
14078;SDS011;7115;50.150;8.568;2024-03-02T14:33:01;4.37;;;3.17;;
14078;SDS011;7115;50.150;8.568;2024-03-02T14:35:28;3.90;;;2.87;;
14078;SDS011;7115;50.150;8.568;2024-03-02T14:37:55;4.03;;;2.73;;
14078;SDS011;7115;50.150;8.568;2024-03-02T14:40:24;5.67;;;3.10;;
14078;SDS011;7115;50.150;8.568;2024-03-02T14:42:53;4.03;;;2.83;;
14078;SDS011;7115;50.150;8.568;2024-03-02T14:45:20;4.00;;;2.80;;
14078;SDS011;7115;50.150;8.568;2024-03-02T14:47:48;6.07;;;3.00;;
14078;SDS011;7115;50.150;8.568;2024-03-02T14:50:16;5.70;;;2.97;;
14078;SDS011;7115;50.150;8.568;2024-03-02T14:52:44;5.33;;;2.97;;
14078;SDS011;7115;50.150;8.568;2024-03-02T14:55:11;4.50;;;2.30;;
14078;SDS011;7115;50.150;8.568;2024-03-02T14:57:38;3.30;;;2.30;;
14078;SDS011;7115;50.150;8.568;2024-03-02T15:00:06;4.30;;;2.80;;
14078;SDS011;7115;50.150;8.568;2024-03-02T15:02:37;5.07;;;2.57;;